Time;durP1;ratioP1;P1;durP2;ratioP2;P2;SDS_P1;SDS_P2;PMS_P1;PMS_P2;Temp;Humidity;BMP_temperature;BMP_pressure;BME280_temperature;BME280_humidity;BME280_pressure;Samples;Min_cycle;Max_cycle;Signal;HPM_P1;HPM_P2
2023/08/17 00:01:59;;;;;;;;;10.33;10.33;;;;;-143.90;66.47;73946.44;4894479;28;102725;-75
2023/08/17 00:04:26;;;;;;;;;8.00;8.00;;;;;-143.90;66.78;73958.84;4895346;28;102475;-73
2023/08/17 00:06:54;;;;;;;;;9.00;9.00;;;;;-143.90;68.52;73989.84;4891105;28;107834;-73
2023/08/17 00:09:22;;;;;;;;;8.33;7.33;;;;;-143.90;69.81;74000.19;4888010;28;103280;-73
2023/08/17 00:11:48;;;;;;;;;10.33;10.33;;;;;-143.90;69.54;74008.44;4889548;28;103814;-73
2023/08/17 00:14:15;;;;;;;;;10.00;9.00;;;;;-143.90;71.52;74027.03;4890993;28;102109;-73
2023/08/17 00:16:42;;;;;;;;;14.00;14.00;;;;;-143.90;71.52;74031.19;4886772;28;104148;-73
2023/08/17 00:19:09;;;;;;;;;14.00;12.33;;;;;-143.90;71.81;74049.78;4900747;28;104955;-73
2023/08/17 00:21:36;;;;;;;;;10.00;10.00;;;;;-143.90;71.09;74051.84;4882496;28;102245;-74
2023/08/17 00:24:04;;;;;;;;;11.67;11.67;;;;;-143.90;70.82;74058.06;4889885;28;101960;-74
2023/08/17 00:26:30;;;;;;;;;11.33;10.00;;;;;-143.90;70.99;74051.84;4888900;28;104308;-74
2023/08/17 00:28:58;;;;;;;;;9.33;9.00;;;;;-143.90;70.39;74043.59;4890957;28;102163;-73
2023/08/17 00:31:25;;;;;;;;;9.50;8.00;;;;;-143.90;71.89;74051.84;4879274;28;102057;-74
2023/08/17 00:33:52;;;;;;;;;12.00;12.00;;;;;-143.90;72.25;74080.78;4888697;28;102339;-73
2023/08/17 00:36:18;;;;;;;;;9.00;8.33;;;;;-143.90;71.74;74082.84;4872679;28;103571;-73
2023/08/17 00:38:45;;;;;;;;;10.33;9.33;;;;;-143.90;71.33;74078.72;4875013;28;102345;-73
2023/08/17 00:41:12;;;;;;;;;9.00;8.00;;;;;-143.90;70.88;74095.25;4895755;28;103617;-73
2023/08/17 00:43:41;;;;;;;;;12.67;12.00;;;;;-143.90;71.01;74109.72;4888696;28;102310;-73
2023/08/17 00:46:08;;;;;;;;;14.00;12.33;;;;;-143.90;70.49;74113.84;4878893;28;104307;-73
2023/08/17 00:48:35;;;;;;;;;11.00;11.00;;;;;-143.90;71.41;74113.84;4884252;28;103464;-73
2023/08/17 00:51:02;;;;;;;;;13.33;12.00;;;;;-143.90;72.48;74130.38;4885831;28;102262;-74
2023/08/17 00:53:31;;;;;;;;;13.00;12.00;;;;;-143.90;73.10;74144.84;4885036;28;102651;-74
2023/08/17 00:56:00;;;;;;;;;12.00;11.00;;;;;-143.90;72.40;74149.00;4886048;28;103289;-74
2023/08/17 00:58:27;;;;;;;;;13.33;12.00;;;;;-143.90;72.84;74146.91;4885071;28;102312;-73
2023/08/17 01:00:54;;;;;;;;;10.00;9.00;;;;;-143.90;73.27;74155.19;4888558;28;107682;-73
2023/08/17 01:03:23;;;;;;;;;13.00;12.00;;;;;-143.90;74.94;74169.66;4882884;28;102700;-73
2023/08/17 01:05:49;;;;;;;;;8.00;7.00;;;;;-143.90;73.99;74163.47;4878544;28;105325;-73
2023/08/17 01:08:16;;;;;;;;;8.00;8.00;;;;;-143.90;73.84;74161.38;4880382;28;102053;-73
2023/08/17 01:11:32;;;;;;;;;9.33;8.67;;;;;-143.90;73.70;74155.19;4874106;28;105933;-73
2023/08/17 01:14:14;;;;;;;;;9.00;9.00;;;;;-143.90;74.54;74182.06;4846925;28;109161;-74
2023/08/17 01:16:55;;;;;;;;;10.00;9.33;;;;;-143.90;74.36;74184.13;4878820;28;104122;-73
2023/08/17 01:19:26;;;;;;;;;9.00;8.00;;;;;-143.90;74.21;74173.78;4885182;28;101991;-73
2023/08/17 01:22:03;;;;;;;;;8.00;8.00;;;;;-143.90;74.20;74169.66;4900202;28;102657;-73
2023/08/17 01:24:30;;;;;;;;;7.00;7.00;;;;;-143.90;74.17;74177.94;4875965;28;102384;-74
2023/08/17 01:26:57;;;;;;;;;5.00;5.00;;;;;-143.90;73.87;74175.84;4884697;28;103996;-73
2023/08/17 01:29:25;;;;;;;;;6.67;6.67;;;;;-143.90;74.03;74184.13;4885314;28;102023;-73
2023/08/17 01:32:16;;;;;;;;;8.67;8.33;;;;;-143.90;73.65;74190.31;4886516;28;102086;-73
2023/08/17 01:34:50;;;;;;;;;6.67;6.67;;;;;-143.90;73.71;74200.66;4880436;28;102414;-73
2023/08/17 01:37:20;;;;;;;;;7.00;7.00;;;;;-143.90;74.12;74190.31;4891858;28;104867;-74
2023/08/17 01:39:52;;;;;;;;;2.00;1.67;;;;;-143.90;74.54;74204.78;4882113;28;101874;-73
2023/08/17 01:42:20;;;;;;;;;7.00;6.00;;;;;-143.90;74.94;74206.88;4881795;28;102429;-74
2023/08/17 01:44:50;;;;;;;;;5.33;5.33;;;;;-143.90;74.95;74211.00;4882714;28;102714;-72
2023/08/17 01:47:21;;;;;;;;;5.33;5.33;;;;;-143.90;74.61;74211.00;4884329;28;103775;-73
2023/08/17 01:49:49;;;;;;;;;4.67;4.67;;;;;-143.90;74.09;74196.53;4884513;28;104722;-73
2023/08/17 01:52:15;;;;;;;;;4.00;4.00;;;;;-143.90;73.94;74200.66;4884864;28;103413;-74
2023/08/17 01:54:42;;;;;;;;;5.33;4.33;;;;;-143.90;73.65;74192.41;4887942;28;102635;-73
2023/08/17 01:57:09;;;;;;;;;6.00;5.00;;;;;-143.90;73.75;74180.00;4884155;28;103946;-73
2023/08/17 01:59:36;;;;;;;;;4.00;4.00;;;;;-143.90;74.18;74188.25;4875207;28;102255;-74
2023/08/17 02:02:03;;;;;;;;;6.00;6.00;;;;;-143.90;73.55;74182.06;4889448;28;102182;-73
2023/08/17 02:04:30;;;;;;;;;6.00;5.00;;;;;-143.90;73.53;74200.66;4884369;28;102518;-74
2023/08/17 02:06:57;;;;;;;;;6.00;6.00;;;;;-143.90;73.13;74202.72;4887650;28;103927;-73
2023/08/17 02:09:23;;;;;;;;;9.00;8.67;;;;;-143.90;72.12;74204.78;4859188;28;103205;-74
2023/08/17 02:11:52;;;;;;;;;10.67;10.33;;;;;-143.90;71.62;74192.41;4880250;28;102389;-73
2023/08/17 02:14:18;;;;;;;;;8.00;8.00;;;;;-143.90;71.54;74200.66;4888127;28;104470;-73
2023/08/17 02:16:45;;;;;;;;;8.33;7.00;;;;;-143.90;72.67;74190.31;4871636;28;104827;-74
2023/08/17 02:19:12;;;;;;;;;9.00;9.00;;;;;-143.90;72.65;74190.31;4880910;28;103134;-73
2023/08/17 02:21:39;;;;;;;;;6.00;5.67;;;;;-143.90;72.84;74186.19;4871658;28;102927;-73
2023/08/17 02:24:06;;;;;;;;;4.33;4.33;;;;;-143.90;72.76;74196.53;4895611;28;102652;-74
2023/08/17 02:26:33;;;;;;;;;7.00;6.00;;;;;-143.90;73.10;74200.66;4874872;28;110152;-73
2023/08/17 02:29:00;;;;;;;;;8.00;7.00;;;;;-143.90;73.23;74194.47;4892753;28;103054;-74
2023/08/17 02:31:27;;;;;;;;;7.00;6.00;;;;;-143.90;72.76;74202.72;4882667;28;103232;-73
2023/08/17 02:33:58;;;;;;;;;4.67;4.00;;;;;-143.90;72.84;74219.25;4885412;28;103675;-73
2023/08/17 02:36:24;;;;;;;;;7.00;6.00;;;;;-143.90;72.36;74221.31;4882728;28;104408;-73
2023/08/17 02:38:51;;;;;;;;;4.00;4.00;;;;;-143.90;73.03;74219.25;4884567;28;102512;-75
2023/08/17 02:41:18;;;;;;;;;6.00;5.00;;;;;-143.90;73.51;74235.78;4885713;28;102497;-73
2023/08/17 02:43:45;;;;;;;;;5.67;4.00;;;;;-143.90;73.13;74233.72;4885488;28;102366;-73
2023/08/17 02:46:12;;;;;;;;;5.00;5.00;;;;;-143.90;72.93;74223.41;4882374;28;103084;-73
2023/08/17 02:48:38;;;;;;;;;4.67;4.00;;;;;-143.90;72.72;74225.47;4882634;28;102136;-73
2023/08/17 02:51:05;;;;;;;;;5.33;5.33;;;;;-143.90;73.15;74229.59;4880638;28;103167;-74
2023/08/17 02:53:32;;;;;;;;;4.33;3.33;;;;;-143.90;73.52;74233.72;4888200;28;102546;-73
2023/08/17 02:55:59;;;;;;;;;6.00;6.00;;;;;-143.90;73.58;74246.13;4885540;28;105980;-75
2023/08/17 02:58:26;;;;;;;;;3.33;3.33;;;;;-143.90;73.86;74237.88;4885512;28;102091;-73
2023/08/17 03:00:53;;;;;;;;;6.67;6.67;;;;;-143.90;73.57;74233.72;4882369;28;102030;-73
2023/08/17 03:03:20;;;;;;;;;5.67;5.00;;;;;-143.90;73.55;74233.72;4877933;28;103939;-74
2023/08/17 03:05:47;;;;;;;;;5.67;5.33;;;;;-143.90;74.04;74237.88;4882490;28;103518;-73
2023/08/17 03:08:14;;;;;;;;;4.33;4.33;;;;;-143.90;73.72;74227.53;4885613;28;103010;-73
2023/08/17 03:10:41;;;;;;;;;6.67;6.67;;;;;-143.90;74.19;74229.59;4882130;28;102562;-73
2023/08/17 03:13:07;;;;;;;;;5.00;5.00;;;;;-143.90;73.90;74233.72;4888942;28;103392;-74
2023/08/17 03:15:39;;;;;;;;;6.00;5.33;;;;;-143.90;73.84;74246.13;4884061;28;103553;-73
2023/08/17 03:18:06;;;;;;;;;4.67;4.67;;;;;-143.90;74.02;74229.59;4884050;28;102303;-74
2023/08/17 03:20:33;;;;;;;;;4.00;4.00;;;;;-143.90;74.13;74233.72;4880341;28;102539;-73
2023/08/17 03:23:00;;;;;;;;;4.67;4.67;;;;;-143.90;74.25;74248.19;4901576;28;102572;-73
2023/08/17 03:25:27;;;;;;;;;4.67;3.67;;;;;-143.90;74.17;74242.00;4884245;28;104082;-73
2023/08/17 03:27:54;;;;;;;;;2.67;2.67;;;;;-143.90;74.22;74237.88;4880294;28;105299;-74
2023/08/17 03:30:21;;;;;;;;;5.67;5.33;;;;;-143.90;73.89;74237.88;4882744;28;102618;-74
2023/08/17 03:32:48;;;;;;;;;4.67;4.67;;;;;-143.90;73.52;74231.66;4888174;28;102308;-73
2023/08/17 03:35:14;;;;;;;;;3.00;3.00;;;;;-143.90;73.79;74244.06;4888521;28;103363;-73
2023/08/17 03:37:41;;;;;;;;;9.00;7.00;;;;;-143.90;75.24;74270.94;4885518;28;102367;-74
2023/08/17 03:40:08;;;;;;;;;14.67;13.67;;;;;-143.90;75.01;74279.22;4886948;28;102391;-73
2023/08/17 03:42:35;;;;;;;;;10.33;10.33;;;;;-143.90;76.03;74283.34;4891132;28;102206;-74
2023/08/17 03:45:03;;;;;;;;;12.67;12.33;;;;;-143.90;76.03;74270.94;4891812;28;105761;-73
2023/08/17 03:47:30;;;;;;;;;8.33;7.33;;;;;-143.90;75.75;74268.88;4885614;28;102614;-73
2023/08/17 03:49:57;;;;;;;;;7.67;7.67;;;;;-143.90;76.45;74270.94;4889236;28;102469;-73
2023/08/17 03:52:24;;;;;;;;;6.67;6.67;;;;;-143.90;76.55;74275.06;4888588;28;103496;-73
2023/08/17 03:54:50;;;;;;;;;6.33;5.67;;;;;-143.90;75.96;74266.81;4884253;28;105528;-74
2023/08/17 03:57:17;;;;;;;;;5.67;5.67;;;;;-143.90;75.75;74256.47;4887229;28;103615;-73
2023/08/17 03:59:44;;;;;;;;;4.00;4.00;;;;;-143.90;75.30;74262.66;4889299;28;102303;-73
2023/08/17 04:02:11;;;;;;;;;6.67;6.67;;;;;-143.90;75.16;74250.25;4901427;28;105491;-74
2023/08/17 04:04:38;;;;;;;;;6.33;5.00;;;;;-143.90;75.16;74254.41;4884164;28;104078;-73
2023/08/17 04:07:06;;;;;;;;;4.00;4.00;;;;;-143.90;76.00;74266.81;4887552;28;102428;-74
2023/08/17 04:09:33;;;;;;;;;10.00;9.67;;;;;-143.90;77.25;74283.34;4880654;28;102553;-73
2023/08/17 04:12:00;;;;;;;;;8.67;7.67;;;;;-143.90;77.06;74285.41;4885466;28;102467;-73
2023/08/17 04:14:27;;;;;;;;;9.00;9.00;;;;;-143.90;77.58;74287.47;4885487;28;104301;-73
2023/08/17 04:16:55;;;;;;;;;8.67;7.33;;;;;-143.90;77.51;74281.28;4884695;28;102134;-74
2023/08/17 04:19:22;;;;;;;;;6.00;6.00;;;;;-143.90;77.15;74291.59;4882978;28;102453;-73
2023/08/17 04:21:49;;;;;;;;;8.33;7.33;;;;;-143.90;76.52;74275.06;4900598;28;102701;-74
2023/08/17 04:24:15;;;;;;;;;10.00;10.00;;;;;-143.90;76.40;74291.59;4886497;28;103534;-73
2023/08/17 04:26:42;;;;;;;;;18.33;14.00;;;;;-143.90;76.37;74275.06;4880032;28;102894;-74
2023/08/17 04:29:09;;;;;;;;;12.33;11.67;;;;;-143.90;76.17;74287.47;4882165;28;102177;-73
2023/08/17 04:31:36;;;;;;;;;16.00;15.33;;;;;-143.90;75.95;74279.22;4883868;28;102593;-74
2023/08/17 04:34:03;;;;;;;;;11.00;9.67;;;;;-143.90;76.40;74279.22;4889415;28;104594;-73
2023/08/17 04:36:29;;;;;;;;;17.33;14.00;;;;;-143.90;77.12;74304.00;4884067;28;103494;-73
2023/08/17 04:38:56;;;;;;;;;16.33;15.67;;;;;-143.90;78.01;74312.28;4887677;28;102332;-73
2023/08/17 04:41:23;;;;;;;;;12.33;12.33;;;;;-143.90;77.96;74310.22;4885535;28;102115;-73
2023/08/17 04:43:50;;;;;;;;;12.67;11.33;;;;;-143.90;78.02;74291.59;4883518;28;105465;-73
2023/08/17 04:46:17;;;;;;;;;12.00;10.33;;;;;-143.90;77.04;74289.53;4888259;28;102084;-73
2023/08/17 04:48:43;;;;;;;;;13.00;12.00;;;;;-143.90;77.18;74297.81;4887599;28;102714;-73
2023/08/17 04:51:10;;;;;;;;;12.67;11.67;;;;;-143.90;77.00;74299.88;4890025;28;104564;-73
2023/08/17 04:53:37;;;;;;;;;10.00;9.33;;;;;-143.90;77.21;74279.22;4885034;28;104013;-74
2023/08/17 04:56:04;;;;;;;;;6.67;6.33;;;;;-143.90;77.16;74275.06;4903933;28;102217;-73
2023/08/17 04:58:31;;;;;;;;;8.67;8.00;;;;;-143.90;77.01;74266.81;4886123;28;102226;-73
2023/08/17 05:00:59;;;;;;;;;8.67;8.67;;;;;-143.90;76.65;74260.59;4888075;28;102111;-73
2023/08/17 05:03:25;;;;;;;;;6.00;6.00;;;;;-143.90;77.24;74254.41;4888151;28;104054;-73
2023/08/17 05:05:59;;;;;;;;;8.67;7.67;;;;;-143.90;76.10;74256.47;4879191;28;102615;-73
2023/08/17 05:08:26;;;;;;;;;6.00;6.00;;;;;-143.90;76.42;74256.47;4902469;28;102157;-73
2023/08/17 05:10:53;;;;;;;;;5.00;5.00;;;;;-143.90;76.54;74252.34;4903643;28;102497;-73
2023/08/17 05:13:20;;;;;;;;;6.00;6.00;;;;;-143.90;76.18;74229.59;4885118;28;105563;-73
2023/08/17 05:15:47;;;;;;;;;6.67;6.67;;;;;-143.90;76.13;74219.25;4886807;28;102392;-73
2023/08/17 05:18:14;;;;;;;;;4.67;4.67;;;;;-143.90;75.61;74208.94;4889334;28;101956;-74
2023/08/17 05:20:41;;;;;;;;;6.33;6.00;;;;;-143.90;74.94;74204.78;4885807;28;102299;-74
2023/08/17 05:23:08;;;;;;;;;7.00;7.00;;;;;-143.90;74.41;74196.53;4889495;28;105546;-74
2023/08/17 05:25:34;;;;;;;;;6.00;6.00;;;;;-143.90;74.66;74194.47;4890332;28;104284;-74
2023/08/17 05:28:01;;;;;;;;;4.00;4.00;;;;;-143.90;74.15;74175.84;4905749;28;102194;-74
2023/08/17 05:30:28;;;;;;;;;5.67;5.67;;;;;-143.90;73.58;74167.59;4888323;28;102395;-74
2023/08/17 05:32:55;;;;;;;;;2.67;2.00;;;;;-143.90;73.78;74157.25;4886553;28;104930;-74
2023/08/17 05:35:22;;;;;;;;;2.00;2.00;;;;;-143.90;73.13;74159.31;4890127;28;102251;-74
2023/08/17 05:37:49;;;;;;;;;5.00;4.00;;;;;-143.90;72.32;74146.91;4889467;28;102313;-74
2023/08/17 05:40:16;;;;;;;;;5.00;4.00;;;;;-143.90;72.42;74142.78;4906157;28;102246;-74
2023/08/17 05:42:43;;;;;;;;;4.67;4.67;;;;;-143.90;72.47;74130.38;4888055;28;103786;-74
2023/08/17 05:45:10;;;;;;;;;4.67;4.00;;;;;-143.90;71.99;74126.25;4891251;28;101995;-74
2023/08/17 05:47:36;;;;;;;;;6.00;6.00;;;;;-143.90;71.93;74113.84;4888835;28;101855;-75
2023/08/17 05:50:04;;;;;;;;;5.33;5.00;;;;;-143.90;71.38;74113.84;4896141;28;102108;-74
2023/08/17 05:52:31;;;;;;;;;5.33;5.00;;;;;-143.90;71.22;74101.44;4888753;28;108771;-74
2023/08/17 05:54:58;;;;;;;;;5.00;4.00;;;;;-143.90;70.37;74089.06;4887126;28;101994;-74
2023/08/17 05:57:25;;;;;;;;;6.00;6.00;;;;;-143.90;71.13;74074.59;4887095;28;102238;-74
2023/08/17 05:59:52;;;;;;;;;13.33;12.00;;;;;-143.90;70.18;74103.53;4889942;28;102057;-74
2023/08/17 06:02:18;;;;;;;;;8.33;8.00;;;;;-143.90;70.06;74101.44;4883171;28;105488;-74
2023/08/17 06:04:47;;;;;;;;;8.00;8.00;;;;;-143.90;70.09;74091.13;4891319;28;102120;-74
2023/08/17 06:07:14;;;;;;;;;8.00;7.00;;;;;-143.90;69.64;74080.78;4891404;28;102372;-74
2023/08/17 06:09:41;;;;;;;;;8.33;7.67;;;;;-143.90;69.90;74060.13;4891605;28;102279;-74
2023/08/17 06:12:08;;;;;;;;;7.00;6.67;;;;;-143.90;69.06;74055.97;4902201;28;103357;-74
2023/08/17 06:14:34;;;;;;;;;8.67;8.00;;;;;-143.90;69.12;74043.59;4895062;28;102322;-73
2023/08/17 06:17:01;;;;;;;;;4.33;4.00;;;;;-143.90;68.78;74037.38;4893059;28;104225;-74
2023/08/17 06:19:28;;;;;;;;;5.00;5.00;;;;;-143.90;68.95;74039.44;4887026;28;103541;-74
2023/08/17 06:21:55;;;;;;;;;8.00;8.00;;;;;-143.90;68.55;74033.25;4889088;28;104071;-74
2023/08/17 06:24:22;;;;;;;;;7.00;7.00;;;;;-143.90;68.41;74018.78;4891488;28;102129;-74
2023/08/17 06:26:48;;;;;;;;;9.00;7.50;;;;;-143.90;69.05;74027.03;4904354;28;102167;-74
2023/08/17 06:29:15;;;;;;;;;8.33;8.33;;;;;-143.90;69.31;74024.97;4893073;28;104222;-74
2023/08/17 06:31:42;;;;;;;;;8.33;8.33;;;;;-143.90;68.85;74012.56;4888935;28;103834;-74
2023/08/17 06:34:09;;;;;;;;;17.00;16.33;;;;;-143.90;68.52;74024.97;4890448;28;102333;-73
2023/08/17 06:36:38;;;;;;;;;13.00;12.33;;;;;-143.90;68.85;74037.38;4889465;28;102006;-74
2023/08/17 06:39:04;;;;;;;;;13.67;13.67;;;;;-143.90;68.85;74018.78;4894504;28;102356;-74
2023/08/17 06:41:31;;;;;;;;;13.67;13.67;;;;;-143.90;68.91;74027.03;4889611;28;109910;-74
2023/08/17 06:43:58;;;;;;;;;15.33;13.00;;;;;-143.90;68.65;74018.78;4903973;28;102030;-74
2023/08/17 06:46:25;;;;;;;;;11.00;10.00;;;;;-143.90;69.45;74008.44;4902022;28;102405;-74
2023/08/17 06:48:52;;;;;;;;;15.33;14.67;;;;;-143.90;68.64;74014.66;4890856;28;101985;-74
2023/08/17 06:51:18;;;;;;;;;14.00;13.00;;;;;-143.90;68.72;74016.72;4888758;28;103230;-74
2023/08/17 06:53:45;;;;;;;;;13.00;13.00;;;;;-143.90;68.86;73983.66;4891020;28;102121;-74
2023/08/17 06:56:12;;;;;;;;;15.67;15.00;;;;;-143.90;67.67;73993.97;4885070;28;103513;-74
2023/08/17 06:58:38;;;;;;;;;18.67;17.67;;;;;-143.90;67.50;74010.50;4888155;28;103382;-74
2023/08/17 07:01:05;;;;;;;;;22.00;21.00;;;;;-143.90;67.66;74027.03;4890297;28;104493;-74
2023/08/17 07:03:33;;;;;;;;;17.00;16.00;;;;;-143.90;68.61;73996.03;4888401;28;102074;-74
2023/08/17 07:05:59;;;;;;;;;16.00;14.33;;;;;-143.90;68.15;73991.91;4886829;28;102190;-74
2023/08/17 07:08:26;;;;;;;;;13.00;13.00;;;;;-143.90;68.26;74002.25;4888773;28;102315;-74
2023/08/17 07:10:53;;;;;;;;;11.67;11.00;;;;;-143.90;68.02;73985.72;4891698;28;103730;-74
2023/08/17 07:13:19;;;;;;;;;14.67;13.67;;;;;-143.90;68.28;73979.50;4893533;28;102367;-74
2023/08/17 07:15:46;;;;;;;;;10.33;10.33;;;;;-143.90;67.84;73969.19;4894456;28;102083;-74
2023/08/17 07:18:13;;;;;;;;;8.00;7.33;;;;;-143.90;67.26;73962.97;4889776;28;103237;-74
2023/08/17 07:20:40;;;;;;;;;8.00;8.00;;;;;-143.90;68.51;73958.84;4891707;28;104110;-74
2023/08/17 07:23:06;;;;;;;;;7.00;7.00;;;;;-143.90;67.25;73960.91;4891917;28;102152;-74
2023/08/17 07:25:33;;;;;;;;;5.00;5.00;;;;;-143.90;66.94;73952.63;4896721;28;101978;-73
2023/08/17 07:28:00;;;;;;;;;5.67;5.67;;;;;-143.90;67.35;73948.50;4891914;28;102259;-74
2023/08/17 07:30:27;;;;;;;;;12.67;9.00;;;;;-143.90;67.33;73954.72;4873383;28;105234;-74
2023/08/17 07:32:54;;;;;;;;;8.00;7.67;;;;;-143.90;66.96;73956.78;4891695;28;102412;-73
2023/08/17 07:35:20;;;;;;;;;8.00;7.33;;;;;-143.90;67.17;73938.19;4888215;28;102080;-73
2023/08/17 07:37:47;;;;;;;;;7.00;6.00;;;;;-143.90;66.25;73919.56;4909295;28;102575;-73
2023/08/17 07:40:29;;;;;;;;;7.00;7.00;;;;;-143.90;65.54;73907.16;4888226;28;105100;-73
2023/08/17 07:42:56;;;;;;;;;9.00;9.00;;;;;-143.90;64.50;73886.50;4890058;28;102177;-74
2023/08/17 07:45:23;;;;;;;;;11.00;11.00;;;;;-143.90;63.85;73853.44;4890109;28;102396;-72
2023/08/17 07:47:49;;;;;;;;;10.00;8.67;;;;;-143.90;63.13;73812.09;4890475;28;103065;-73
2023/08/17 07:50:17;;;;;;;;;15.67;14.67;;;;;-143.90;62.25;73779.03;4908678;28;104056;-73
2023/08/17 07:52:44;;;;;;;;;14.67;13.33;;;;;-143.90;60.80;73770.78;4889801;28;102373;-73
2023/08/17 07:55:11;;;;;;;;;18.00;17.33;;;;;-143.90;62.64;73776.97;4894986;28;102389;-74
2023/08/17 07:57:38;;;;;;;;;14.00;12.67;;;;;-143.90;61.98;73741.84;4893206;28;102441;-73
2023/08/17 08:00:05;;;;;;;;;14.33;13.00;;;;;-143.90;61.20;73723.22;4888642;28;104801;-72
2023/08/17 08:02:32;;;;;;;;;16.00;15.33;;;;;-143.90;60.41;73698.44;4891149;28;103140;-73
2023/08/17 08:04:59;;;;;;;;;14.67;13.00;;;;;-143.90;60.88;73686.03;4890635;28;102282;-73
2023/08/17 08:07:25;;;;;;;;;15.33;15.33;;;;;-143.90;60.80;73688.09;4892637;28;102598;-74
2023/08/17 08:09:52;;;;;;;;;16.00;15.00;;;;;-143.90;60.85;73683.97;4893957;28;104614;-74
2023/08/17 08:12:19;;;;;;;;;14.67;14.33;;;;;-143.90;59.32;73671.56;4889583;28;102181;-72
2023/08/17 08:14:46;;;;;;;;;14.67;11.67;;;;;-143.90;59.59;73659.16;4908186;28;102091;-72
2023/08/17 08:17:13;;;;;;;;;11.00;10.33;;;;;-143.90;59.71;73634.38;4894252;28;102332;-75
2023/08/17 08:19:39;;;;;;;;;8.00;8.00;;;;;-143.90;59.07;73611.63;4893208;28;104045;-75
2023/08/17 08:22:06;;;;;;;;;4.67;4.67;;;;;-143.90;57.19;73601.31;4891103;28;102372;-75
2023/08/17 08:24:34;;;;;;;;;9.00;9.00;;;;;-143.90;57.11;73580.63;4892349;28;102914;-73
2023/08/17 08:27:04;;;;;;;;;13.33;12.00;;;;;-143.90;57.60;73572.38;4891366;28;102367;-72
2023/08/17 08:29:31;;;;;;;;;16.33;15.67;;;;;-143.90;56.81;73580.63;4888890;28;103788;-72
2023/08/17 08:31:59;;;;;;;;;14.00;13.00;;;;;-143.90;56.89;73572.38;4893580;28;102126;-72
2023/08/17 08:34:26;;;;;;;;;15.33;14.00;;;;;-143.90;57.45;73555.84;4890536;28;108727;-73
2023/08/17 08:36:53;;;;;;;;;14.00;14.00;;;;;-143.90;56.38;73543.44;4897122;28;103159;-72
2023/08/17 08:39:19;;;;;;;;;10.33;10.33;;;;;-143.90;56.75;73551.72;4891349;28;104632;-72
2023/08/17 08:41:46;;;;;;;;;11.00;10.33;;;;;-143.90;56.87;73562.03;4893037;28;102982;-72
2023/08/17 08:44:13;;;;;;;;;11.67;11.33;;;;;-143.90;56.77;73593.03;4893937;28;102806;-72
2023/08/17 08:46:43;;;;;;;;;16.00;15.00;;;;;-143.90;58.81;73601.31;4912404;28;102575;-72
2023/08/17 08:49:11;;;;;;;;;17.00;16.00;;;;;-143.90;56.78;73597.16;4905290;28;108828;-73
2023/08/17 08:51:44;;;;;;;;;19.67;18.67;;;;;-143.90;56.28;73566.16;4891660;28;102141;-72
2023/08/17 08:54:14;;;;;;;;;16.33;15.67;;;;;-143.90;56.15;73555.84;4893555;28;102340;-73
2023/08/17 08:56:44;;;;;;;;;22.33;20.00;;;;;-143.90;55.46;73597.16;4907904;28;102231;-73
2023/08/17 08:59:14;;;;;;;;;19.33;17.00;;;;;-143.90;56.40;73555.84;4890210;28;108352;-72
2023/08/17 09:01:41;;;;;;;;;18.33;16.67;;;;;-143.90;57.06;73514.50;4891048;28;101918;-73
2023/08/17 09:04:08;;;;;;;;;12.00;11.00;;;;;-143.90;55.80;73485.56;4908184;28;102222;-72
2023/08/17 09:06:37;;;;;;;;;16.67;16.00;;;;;-143.90;53.98;73479.38;4893953;28;102483;-72
2023/08/17 09:09:05;;;;;;;;;13.67;13.00;;;;;-143.90;55.43;73452.50;4893188;28;103019;-72
2023/08/17 09:11:32;;;;;;;;;13.67;13.00;;;;;-143.90;54.81;73427.72;4885141;28;102307;-73
2023/08/17 09:13:59;;;;;;;;;11.33;11.33;;;;;-143.90;53.69;73419.44;4905886;28;103055;-72
2023/08/17 09:16:27;;;;;;;;;11.67;11.67;;;;;-143.90;51.07;73448.38;4892194;28;102396;-72
2023/08/17 09:18:54;;;;;;;;;14.33;14.33;;;;;-143.90;53.34;73460.78;4908873;28;105770;-72
2023/08/17 09:21:22;;;;;;;;;16.67;16.00;;;;;-143.90;52.80;73446.31;4893426;28;102147;-72
2023/08/17 09:23:56;;;;;;;;;11.33;11.00;;;;;-143.90;52.60;73433.91;4889008;28;102302;-72
2023/08/17 09:26:30;;;;;;;;;15.67;15.33;;;;;-143.90;52.87;73448.38;4891642;28;102354;-72
2023/08/17 09:28:58;;;;;;;;;13.33;13.00;;;;;-143.90;53.13;73423.59;4890657;28;104020;-72
2023/08/17 09:31:25;;;;;;;;;14.00;13.00;;;;;-143.90;55.77;73417.38;4892204;28;102068;-73
2023/08/17 09:33:53;;;;;;;;;11.00;9.33;;;;;-143.90;53.07;73388.44;4889589;28;102320;-72
2023/08/17 09:36:23;;;;;;;;;10.00;10.00;;;;;-143.90;53.62;73347.13;4889965;28;102139;-72
2023/08/17 09:38:53;;;;;;;;;10.67;10.33;;;;;-143.90;53.63;73318.19;4891542;28;103809;-72
2023/08/17 09:41:20;;;;;;;;;16.00;14.67;;;;;-143.90;48.57;73320.25;4890281;28;104126;-72
2023/08/17 09:43:47;;;;;;;;;15.33;14.67;;;;;-143.90;48.70;73297.53;4892263;28;102997;-72
2023/08/17 09:46:14;;;;;;;;;18.00;17.33;;;;;-143.90;46.68;73293.41;4893914;28;102266;-73
2023/08/17 09:48:45;;;;;;;;;18.67;16.00;;;;;-143.90;48.92;73272.72;4896714;28;104342;-72
2023/08/17 09:51:15;;;;;;;;;19.00;19.00;;;;;-143.90;48.86;73283.06;4885456;28;102040;-72
2023/08/17 09:53:43;;;;;;;;;19.00;16.00;;;;;-143.90;47.74;73272.72;4890488;28;102310;-72
2023/08/17 09:56:13;;;;;;;;;19.00;18.67;;;;;-143.90;47.22;73262.41;4908066;28;102146;-72
2023/08/17 09:58:43;;;;;;;;;13.67;12.67;;;;;-143.90;46.76;73252.06;4888599;28;108002;-72
2023/08/17 10:01:10;;;;;;;;;14.00;14.00;;;;;-143.90;46.85;73227.28;4895483;28;102744;-73
2023/08/17 10:03:42;;;;;;;;;18.00;16.33;;;;;-143.90;46.80;73243.81;4894882;28;103719;-71
2023/08/17 10:06:12;;;;;;;;;11.33;11.33;;;;;-143.90;46.70;73212.81;4894608;28;102022;-72
2023/08/17 10:08:52;;;;;;;;;11.67;11.00;;;;;-143.90;45.92;73204.53;4888457;28;108870;-72
2023/08/17 10:11:21;;;;;;;;;12.67;12.00;;;;;-143.90;45.60;73190.06;4899591;28;102010;-72
2023/08/17 10:13:56;;;;;;;;;12.67;12.00;;;;;-143.90;47.05;73181.81;4887471;28;103292;-72
2023/08/17 10:16:40;;;;;;;;;12.00;10.33;;;;;-143.90;45.78;73194.22;4908565;28;102974;-72
2023/08/17 10:19:25;;;;;;;;;17.00;16.67;;;;;-143.90;43.75;73183.88;4891514;28;108987;-71
2023/08/17 10:22:16;;;;;;;;;13.67;12.00;;;;;-143.90;45.35;73177.69;4905166;28;102169;-73
2023/08/17 10:24:46;;;;;;;;;12.67;12.33;;;;;-143.90;45.93;73167.34;4889497;28;102303;-72
2023/08/17 10:27:13;;;;;;;;;14.00;12.00;;;;;-143.90;46.14;73148.75;4892147;28;107855;-73
2023/08/17 10:29:41;;;;;;;;;14.33;12.00;;;;;-143.90;45.80;73154.94;4889985;28;108676;-72
2023/08/17 10:32:08;;;;;;;;;20.00;18.67;;;;;-143.90;44.04;73157.00;4892009;28;102817;-72
2023/08/17 10:34:36;;;;;;;;;17.67;16.33;;;;;-143.90;44.42;73159.09;4891426;28;102208;-72
2023/08/17 10:37:03;;;;;;;;;15.33;14.00;;;;;-143.90;44.96;73132.22;4889778;28;103711;-72
2023/08/17 10:39:30;;;;;;;;;13.33;13.00;;;;;-143.90;44.21;73130.16;4888510;28;103783;-72
2023/08/17 10:41:58;;;;;;;;;16.33;14.67;;;;;-143.90;43.16;73126.03;4893634;28;101961;-71
2023/08/17 10:45:03;;;;;;;;;16.33;15.33;;;;;-143.90;43.69;73130.16;4890496;28;102557;-72
2023/08/17 10:47:32;;;;;;;;;14.00;12.33;;;;;-143.90;42.47;73140.47;4827792;28;102398;-71
2023/08/17 10:50:09;;;;;;;;;13.33;13.33;;;;;-143.90;41.43;73142.56;4879054;28;103743;-73
2023/08/17 10:52:40;;;;;;;;;11.33;11.00;;;;;-143.90;44.66;73146.69;4888806;28;102396;-72
2023/08/17 10:55:11;;;;;;;;;11.00;9.67;;;;;-143.90;46.01;73165.28;4890296;28;102005;-72
2023/08/17 10:57:39;;;;;;;;;11.00;10.00;;;;;-143.90;46.16;73200.41;4893145;28;102054;-72
2023/08/17 11:00:26;;;;;;;;;10.00;10.00;;;;;-143.90;43.56;73239.66;4891742;28;104162;-72
2023/08/17 11:03:01;;;;;;;;;10.00;10.00;;;;;-143.90;45.28;73256.19;4891898;28;102149;-72
2023/08/17 11:05:42;;;;;;;;;11.00;11.00;;;;;-143.90;43.46;73291.31;4889600;28;102255;-72
2023/08/17 11:08:19;;;;;;;;;10.00;9.33;;;;;-143.90;43.95;73299.59;4905410;28;102506;-72